Terminal Aerodrome Forecast
Issued by NWS

Home | Current Version | Previous Version | Text Only | Print | Product List | Glossary On
Versions: 1 2 3 4 5 6 7 8 9 10 11 12 13 14 15 16 17 18
430
FTUS43 KLSX 020222 AAA
TAFUIN
TAF AMD
KUIN 020222Z 0202/0224 29005KT P6SM OVC025
     FM020400 27005KT P6SM BKN035
     FM021000 27005KT P6SM BKN025
     FM021700 31007KT P6SM SCT035=

USA.gov is the U.S. government's official web portal to all federal, state and local government web resources and services.